^^
Station Historical Data
Daily Summary for January 16, 2018 Units:  English    Metric   Both
« Previous Day
Next Day »
Daily Weekly Monthly Yearly Custom
  High: Low: Average:
Temperature: TemperatureF °F 45.0 °F 56.2 °F
Dew Point: DewpointF °F 42.7 °F 47.3 °F
Humidity: Humidity% 37% 75%
Wind Speed: WindSpeedMPHmph 0.0mph 0mph
Wind Gust: WindSpeedGustMPHmph - -
Wind- - North
Pressure: PressureIn in 30.27 in -
Precipitation: 0.00 in    
Historical Graphs
 
 
Tabular Data for January 16, 2018
Time Temperature Dew Point Pressure Wind Wind Speed Wind Gust Humidity Rainfall Rate (Hourly) solar Conditions
TemperatureF °F DewpointF °F PressureIn in Calm     Humidity% HourlyPrecipIn in SolarRadiationWatts/m^2 W/m2 Conditions
00:00 46.0 °F 42.7 °F 30.37 in Calm     88% 0.00 in 0.0 W/m2 FEW
00:20 46.0 °F 42.7 °F 30.36 in Calm     88% 0.00 in 0.0 W/m2 CLR
00:40 46.0 °F 42.7 °F 30.36 in Calm     88% 0.00 in 0.0 W/m2 CLR
00:45 46.0 °F 42.7 °F 30.36 in Calm     88% 0.00 in 0.0 W/m2 CLR
00:55 46.0 °F 42.7 °F 30.36 in Calm     88% 0.00 in 0.0 W/m2 CLR
01:00 46.0 °F 42.7 °F 30.36 in Calm     88% 0.00 in 0.0 W/m2 CLR
01:20 46.0 °F 43.8 °F 30.35 in Calm     92% 0.00 in 0.0 W/m2 CLR
01:25 46.0 °F 43.8 °F 30.35 in Calm     92% 0.00 in 0.0 W/m2 CLR
01:30 46.0 °F 43.8 °F 30.35 in Calm     92% 0.00 in 0.0 W/m2 CLR
01:40 46.0 °F 43.8 °F 30.35 in Calm     92% 0.00 in 0.0 W/m2 CLR
01:45 46.0 °F 43.8 °F 30.35 in Calm     92% 0.00 in 0.0 W/m2 CLR
01:55 46.0 °F 43.8 °F 30.35 in Calm     92% 0.00 in 0.0 W/m2 CLR
02:00 46.0 °F 43.8 °F 30.35 in Calm     92% 0.00 in 0.0 W/m2 CLR
02:10 46.0 °F 43.8 °F 30.34 in Calm     92% 0.00 in 0.0 W/m2 CLR
02:15 46.0 °F 43.8 °F 30.34 in Calm     92% 0.00 in 0.0 W/m2 CLR
02:25 46.0 °F 43.8 °F 30.34 in Calm     92% 0.00 in 0.0 W/m2 CLR
02:30 46.0 °F 43.8 °F 30.34 in Calm     92% 0.00 in 0.0 W/m2 CLR
02:40 46.0 °F 43.8 °F 30.34 in Calm     92% 0.00 in 0.0 W/m2 CLR
02:45 46.0 °F 43.8 °F 30.34 in Calm     92% 0.00 in 0.0 W/m2 CLR
02:55 46.0 °F 43.8 °F 30.34 in Calm     92% 0.00 in 0.0 W/m2 CLR
03:00 46.0 °F 43.8 °F 30.34 in Calm     92% 0.00 in 0.0 W/m2 CLR
03:10 45.0 °F 43.9 °F 30.33 in Calm     96% 0.00 in 0.0 W/m2 CLR
03:15 45.0 °F 43.9 °F 30.33 in Calm     96% 0.00 in 0.0 W/m2 CLR
03:25 45.0 °F 43.9 °F 30.33 in Calm     96% 0.00 in 0.0 W/m2 CLR
03:30 45.0 °F 43.9 °F 30.33 in Calm     96% 0.00 in 0.0 W/m2 CLR
03:40 45.0 °F 43.9 °F 30.33 in Calm     96% 0.00 in 0.0 W/m2 CLR
03:55 45.0 °F 43.9 °F 30.33 in Calm     96% 0.00 in 0.0 W/m2 CLR
04:00 45.0 °F 43.9 °F 30.33 in Calm     96% 0.00 in 0.0 W/m2 CLR
04:10 48.0 °F 45.8 °F 30.33 in Calm     92% 0.00 in 0.0 W/m2 CLR
04:15 48.0 °F 45.8 °F 30.33 in Calm     92% 0.00 in 0.0 W/m2 CLR
04:30 48.0 °F 45.8 °F 30.33 in Calm     92% 0.00 in 0.0 W/m2 CLR
04:40 48.0 °F 45.8 °F 30.33 in Calm     92% 0.00 in 0.0 W/m2 CLR
04:45 48.0 °F 45.8 °F 30.33 in Calm     92% 0.00 in 0.0 W/m2 CLR
04:55 48.0 °F 45.8 °F 30.33 in Calm     92% 0.00 in 0.0 W/m2 CLR
05:00 48.0 °F 45.8 °F 30.33 in Calm     92% 0.00 in 0.0 W/m2 CLR
05:10 46.0 °F 44.7 °F 30.33 in Calm     95% 0.00 in 0.0 W/m2 CLR
05:15 46.0 °F 44.7 °F 30.33 in Calm     95% 0.00 in 0.0 W/m2 CLR
05:25 46.0 °F 44.7 °F 30.33 in Calm     95% 0.00 in 0.0 W/m2 CLR
05:30 46.0 °F 44.7 °F 30.33 in Calm     95% 0.00 in 0.0 W/m2 CLR
05:40 46.0 °F 44.7 °F 30.33 in Calm     95% 0.00 in 0.0 W/m2 CLR
05:55 46.0 °F 44.7 °F 30.33 in Calm     95% 0.00 in 0.0 W/m2 CLR
06:00 46.0 °F 44.7 °F 30.33 in Calm     95% 0.00 in 0.0 W/m2 CLR
06:10 46.9 °F 45.9 °F 30.34 in Calm     96% 0.00 in 0.0 W/m2 CLR
06:20 46.9 °F 45.9 °F 30.34 in Calm     96% 0.00 in 0.0 W/m2 CLR
06:30 46.9 °F 45.9 °F 30.34 in Calm     96% 0.00 in 0.0 W/m2 CLR
06:40 46.9 °F 45.9 °F 30.34 in Calm     96% 0.00 in 0.0 W/m2 CLR
06:45 46.9 °F 45.9 °F 30.34 in Calm     96% 0.00 in 0.0 W/m2 CLR
06:55 46.9 °F 45.9 °F 30.34 in Calm     96% 0.00 in 0.0 W/m2 CLR
07:00 46.9 °F 45.9 °F 30.34 in Calm     96% 0.00 in 0.0 W/m2 CLR
07:10 46.9 °F 45.9 °F 30.36 in Calm     96% 0.00 in 0.0 W/m2 CLR
07:15 46.9 °F 45.9 °F 30.36 in Calm     96% 0.00 in 0.0 W/m2 CLR
07:25 46.9 °F 45.9 °F 30.36 in Calm     96% 0.00 in 0.0 W/m2 CLR
07:30 46.9 °F 45.9 °F 30.36 in Calm     96% 0.00 in 0.0 W/m2 CLR
07:40 46.9 °F 45.9 °F 30.36 in Calm     96% 0.00 in 0.0 W/m2 CLR
07:45 46.9 °F 45.9 °F 30.36 in Calm     96% 0.00 in 0.0 W/m2 CLR
07:50 46.9 °F 45.9 °F 30.36 in Calm     96% 0.00 in 0.0 W/m2 CLR
08:00 46.9 °F 45.9 °F 30.36 in Calm     96% 0.00 in 0.0 W/m2 CLR
08:10 48.0 °F 46.9 °F 30.36 in Calm     96% 0.00 in 0.0 W/m2 CLR
08:15 48.0 °F 46.9 °F 30.36 in Calm     96% 0.00 in 0.0 W/m2 CLR
08:25 48.0 °F 46.9 °F 30.36 in Calm     96% 0.00 in 0.0 W/m2 CLR
08:30 48.0 °F 46.9 °F 30.36 in Calm     96% 0.00 in 0.0 W/m2 CLR
08:40 48.0 °F 46.9 °F 30.36 in Calm     96% 0.00 in 0.0 W/m2 CLR
08:55 48.0 °F 46.9 °F 30.36 in Calm     96% 0.00 in 0.0 W/m2 CLR
09:00 48.0 °F 46.9 °F 30.36 in Calm     96% 0.00 in 0.0 W/m2 CLR
09:10 54.0 °F 48.6 °F 30.37 in Calm     82% 0.00 in 0.0 W/m2 CLR
09:15 54.0 °F 48.6 °F 30.37 in Calm     82% 0.00 in 0.0 W/m2 CLR
09:40 54.0 °F 48.6 °F 30.37 in Calm     82% 0.00 in 0.0 W/m2 CLR
09:45 54.0 °F 48.6 °F 30.37 in Calm     82% 0.00 in 0.0 W/m2 CLR
09:55 54.0 °F 48.6 °F 30.37 in Calm     82% 0.00 in 0.0 W/m2 CLR
10:00 54.0 °F 48.6 °F 30.37 in Calm     82% 0.00 in 0.0 W/m2 CLR
10:10 61.0 °F 49.9 °F 30.39 in Calm     67% 0.00 in 0.0 W/m2 CLR
10:15 61.0 °F 49.9 °F 30.39 in Calm     67% 0.00 in 0.0 W/m2 CLR
10:25 61.0 °F 49.9 °F 30.39 in Calm     67% 0.00 in 0.0 W/m2 CLR
10:30 61.0 °F 49.9 °F 30.39 in Calm     67% 0.00 in 0.0 W/m2 CLR
10:40 61.0 °F 49.9 °F 30.39 in Calm     67% 0.00 in 0.0 W/m2 CLR
10:45 61.0 °F 49.9 °F 30.39 in Calm     67% 0.00 in 0.0 W/m2 CLR
10:50 61.0 °F 49.9 °F 30.39 in Calm     67% 0.00 in 0.0 W/m2 CLR
11:00 61.0 °F 49.9 °F 30.39 in Calm     67% 0.00 in 0.0 W/m2 CLR
11:10 66.0 °F 49.9 °F 30.39 in Calm     56% 0.00 in 0.0 W/m2 CLR
11:15 66.0 °F 49.9 °F 30.39 in Calm     56% 0.00 in 0.0 W/m2 CLR
11:25 66.0 °F 49.9 °F 30.39 in Calm     56% 0.00 in 0.0 W/m2 CLR
11:30 66.0 °F 49.9 °F 30.39 in Calm     56% 0.00 in 0.0 W/m2 CLR
11:40 66.0 °F 49.9 °F 30.39 in Calm     56% 0.00 in 0.0 W/m2 CLR
11:45 66.0 °F 49.9 °F 30.39 in Calm     56% 0.00 in 0.0 W/m2 CLR
12:00 66.0 °F 49.9 °F 30.39 in Calm     56% 0.00 in 0.0 W/m2 CLR
12:10 69.1 °F 49.7 °F 30.36 in Calm     50% 0.00 in 0.0 W/m2 CLR
12:15 69.1 °F 49.7 °F 30.36 in Calm     50% 0.00 in 0.0 W/m2 CLR
12:25 69.1 °F 49.7 °F 30.36 in Calm     50% 0.00 in 0.0 W/m2 CLR
12:30 69.1 °F 49.7 °F 30.36 in Calm     50% 0.00 in 0.0 W/m2 CLR
12:40 69.1 °F 49.7 °F 30.36 in Calm     50% 0.00 in 0.0 W/m2 CLR
12:45 69.1 °F 49.7 °F 30.36 in Calm     50% 0.00 in 0.0 W/m2 CLR
12:55 69.1 °F 49.7 °F 30.36 in Calm     50% 0.00 in 0.0 W/m2 CLR
13:00 69.1 °F 49.7 °F 30.36 in Calm     50% 0.00 in 0.0 W/m2 CLR
13:10 69.1 °F 48.6 °F 30.33 in Calm     48% 0.00 in 0.0 W/m2 SCT
13:15 69.1 °F 48.6 °F 30.33 in Calm     48% 0.00 in 0.0 W/m2 SCT
13:30 70.0 °F 47.7 °F 30.32 in Calm     45% 0.00 in 0.0 W/m2 SCT
13:40 70.0 °F 47.7 °F 30.32 in Calm     45% 0.00 in 0.0 W/m2 SCT
13:45 70.0 °F 47.7 °F 30.32 in Calm     45% 0.00 in 0.0 W/m2 SCT
13:55 70.0 °F 47.7 °F 30.32 in Calm     45% 0.00 in 0.0 W/m2 SCT
14:00 70.0 °F 47.7 °F 30.32 in Calm     45% 0.00 in 0.0 W/m2 SCT
14:10 69.1 °F 45.6 °F 30.30 in Calm     43% 0.00 in 0.0 W/m2 FEW
14:15 69.1 °F 45.6 °F 30.30 in Calm     43% 0.00 in 0.0 W/m2 FEW
14:30 69.1 °F 45.6 °F 30.30 in Calm     43% 0.00 in 0.0 W/m2 FEW
14:40 69.1 °F 45.6 °F 30.30 in Calm     43% 0.00 in 0.0 W/m2 FEW
14:45 69.1 °F 45.6 °F 30.30 in Calm     43% 0.00 in 0.0 W/m2 FEW
14:55 69.1 °F 45.6 °F 30.30 in Calm     43% 0.00 in 0.0 W/m2 FEW
15:00 69.1 °F 45.6 °F 30.30 in Calm     43% 0.00 in 0.0 W/m2 FEW
15:15 72.0 °F 44.3 °F 30.27 in Calm     37% 0.00 in 0.0 W/m2 SCT
15:30 72.0 °F 44.3 °F 30.27 in Calm     37% 0.00 in 0.0 W/m2 SCT
15:40 72.0 °F 44.3 °F 30.27 in Calm     37% 0.00 in 0.0 W/m2 SCT
15:45 72.0 °F 44.3 °F 30.27 in Calm     37% 0.00 in 0.0 W/m2 SCT
15:55 72.0 °F 44.3 °F 30.27 in Calm     37% 0.00 in 0.0 W/m2 SCT
16:00 72.0 °F 44.3 °F 30.27 in Calm     37% 0.00 in 0.0 W/m2 SCT
16:10 68.0 °F 46.4 °F 30.28 in Calm     46% 0.00 in 0.0 W/m2 BKN
16:15 68.0 °F 46.4 °F 30.28 in Calm     46% 0.00 in 0.0 W/m2 BKN
16:25 68.0 °F 46.4 °F 30.28 in Calm     46% 0.00 in 0.0 W/m2 BKN
16:30 68.0 °F 46.4 °F 30.28 in Calm     46% 0.00 in 0.0 W/m2 BKN
16:40 68.0 °F 46.4 °F 30.28 in Calm     46% 0.00 in 0.0 W/m2 BKN
16:45 68.0 °F 46.4 °F 30.28 in Calm     46% 0.00 in 0.0 W/m2 BKN
16:55 68.0 °F 46.4 °F 30.28 in Calm     46% 0.00 in 0.0 W/m2 BKN
17:00 68.0 °F 46.4 °F 30.28 in Calm     46% 0.00 in 0.0 W/m2 BKN
17:10 66.9 °F 46.6 °F 30.28 in Calm     48% 0.00 in 0.0 W/m2 CLR
17:25 66.9 °F 46.6 °F 30.28 in Calm     48% 0.00 in 0.0 W/m2 CLR
17:30 66.9 °F 46.6 °F 30.28 in Calm     48% 0.00 in 0.0 W/m2 CLR
17:45 66.9 °F 46.6 °F 30.28 in Calm     48% 0.00 in 0.0 W/m2 CLR
17:55 66.9 °F 46.6 °F 30.28 in Calm     48% 0.00 in 0.0 W/m2 CLR
18:00 66.9 °F 46.6 °F 30.28 in Calm     48% 0.00 in 0.0 W/m2 CLR
18:10 64.0 °F 50.8 °F 30.29 in Calm     62% 0.00 in 0.0 W/m2 CLR
18:15 64.0 °F 50.8 °F 30.29 in Calm     62% 0.00 in 0.0 W/m2 CLR
18:25 64.0 °F 50.8 °F 30.29 in Calm     62% 0.00 in 0.0 W/m2 CLR
18:30 64.0 °F 50.8 °F 30.29 in Calm     62% 0.00 in 0.0 W/m2 CLR
18:40 64.0 °F 50.8 °F 30.29 in Calm     62% 0.00 in 0.0 W/m2 CLR
18:45 64.0 °F 50.8 °F 30.29 in Calm     62% 0.00 in 0.0 W/m2 CLR
18:55 64.0 °F 50.8 °F 30.29 in Calm     62% 0.00 in 0.0 W/m2 CLR
19:00 64.0 °F 50.8 °F 30.29 in Calm     62% 0.00 in 0.0 W/m2 CLR
19:20 60.1 °F 51.8 °F 30.29 in Calm     74% 0.00 in 0.0 W/m2 CLR
19:30 60.1 °F 51.8 °F 30.29 in Calm     74% 0.00 in 0.0 W/m2 CLR
19:40 60.1 °F 51.8 °F 30.29 in Calm     74% 0.00 in 0.0 W/m2 CLR
19:45 60.1 °F 51.8 °F 30.29 in Calm     74% 0.00 in 0.0 W/m2 CLR
19:55 60.1 °F 51.8 °F 30.29 in Calm     74% 0.00 in 0.0 W/m2 CLR
20:00 60.1 °F 51.8 °F 30.29 in Calm     74% 0.00 in 0.0 W/m2 CLR
20:10 57.0 °F 51.9 °F 30.31 in Calm     83% 0.00 in 0.0 W/m2 CLR
20:15 57.0 °F 51.9 °F 30.31 in Calm     83% 0.00 in 0.0 W/m2 CLR
20:25 57.0 °F 51.9 °F 30.31 in Calm     83% 0.00 in 0.0 W/m2 CLR
20:30 57.0 °F 51.9 °F 30.31 in Calm     83% 0.00 in 0.0 W/m2 CLR
20:40 57.0 °F 51.9 °F 30.31 in Calm     83% 0.00 in 0.0 W/m2 CLR
20:45 57.0 °F 51.9 °F 30.31 in Calm     83% 0.00 in 0.0 W/m2 CLR
20:55 57.0 °F 51.9 °F 30.31 in Calm     83% 0.00 in 0.0 W/m2 CLR
21:00 57.0 °F 51.9 °F 30.31 in Calm     83% 0.00 in 0.0 W/m2 CLR
21:10 55.0 °F 51.9 °F 30.30 in Calm     89% 0.00 in 0.0 W/m2 CLR
21:15 55.0 °F 51.9 °F 30.30 in Calm     89% 0.00 in 0.0 W/m2 CLR
21:25 55.0 °F 51.9 °F 30.30 in Calm     89% 0.00 in 0.0 W/m2 CLR
21:30 55.0 °F 51.9 °F 30.30 in Calm     89% 0.00 in 0.0 W/m2 CLR
21:40 55.0 °F 51.9 °F 30.30 in Calm     89% 0.00 in 0.0 W/m2 CLR
22:00 55.0 °F 51.9 °F 30.30 in Calm     89% 0.00 in 0.0 W/m2 CLR
22:10 53.1 °F 50.8 °F 30.31 in Calm     92% 0.00 in 0.0 W/m2 CLR
22:15 53.1 °F 50.8 °F 30.31 in Calm     92% 0.00 in 0.0 W/m2 CLR
22:25 53.1 °F 50.8 °F 30.31 in Calm     92% 0.00 in 0.0 W/m2 CLR
22:35 53.1 °F 50.8 °F 30.31 in Calm     92% 0.00 in 0.0 W/m2 CLR
22:40 53.1 °F 50.8 °F 30.31 in Calm     92% 0.00 in 0.0 W/m2 CLR
22:45 53.1 °F 50.8 °F 30.31 in Calm     92% 0.00 in 0.0 W/m2 CLR
22:55 53.1 °F 50.8 °F 30.31 in Calm     92% 0.00 in 0.0 W/m2 CLR
23:00 53.1 °F 50.8 °F 30.31 in Calm     92% 0.00 in 0.0 W/m2 CLR
23:10 53.1 °F 50.8 °F 30.30 in Calm     92% 0.00 in 0.0 W/m2 CLR
23:15 53.1 °F 50.8 °F 30.30 in Calm     92% 0.00 in 0.0 W/m2 CLR
23:25 53.1 °F 50.8 °F 30.30 in Calm     92% 0.00 in 0.0 W/m2 CLR
23:30 53.1 °F 50.8 °F 30.30 in Calm     92% 0.00 in 0.0 W/m2 CLR
23:40 53.1 °F 50.8 °F 30.30 in Calm     92% 0.00 in 0.0 W/m2 CLR
23:45 53.1 °F 50.8 °F 30.30 in Calm     92% 0.00 in 0.0 W/m2 CLR
23:55 53.1 °F 50.8 °F 30.30 in Calm     92% 0.00 in 0.0 W/m2 CLR
Lake Mary, FL, USA
Compliments of Weather Underground - 1.5 mb